sensor_id;sensor_type;location;lat;lon;timestamp;P1;durP1;ratioP1;P2;durP2;ratioP2
35578;SDS011;21687;48.900;9.188;2022-12-17T00:00:25;34.07;;;17.30;;
35578;SDS011;21687;48.900;9.188;2022-12-17T00:03:10;32.53;;;17.37;;
35578;SDS011;21687;48.900;9.188;2022-12-17T00:05:55;30.03;;;17.53;;
35578;SDS011;21687;48.900;9.188;2022-12-17T00:08:39;33.50;;;18.37;;
35578;SDS011;21687;48.900;9.188;2022-12-17T00:11:24;29.13;;;17.03;;
35578;SDS011;21687;48.900;9.188;2022-12-17T00:14:09;28.43;;;17.27;;
35578;SDS011;21687;48.900;9.188;2022-12-17T00:16:54;30.13;;;16.10;;
35578;SDS011;21687;48.900;9.188;2022-12-17T00:19:39;32.20;;;17.00;;
35578;SDS011;21687;48.900;9.188;2022-12-17T00:22:24;36.80;;;17.23;;
35578;SDS011;21687;48.900;9.188;2022-12-17T00:25:09;29.30;;;17.20;;
35578;SDS011;21687;48.900;9.188;2022-12-17T00:27:54;29.70;;;17.13;;
35578;SDS011;21687;48.900;9.188;2022-12-17T00:30:39;32.00;;;17.93;;
35578;SDS011;21687;48.900;9.188;2022-12-17T00:33:24;34.63;;;18.10;;
35578;SDS011;21687;48.900;9.188;2022-12-17T00:36:25;29.33;;;15.67;;
35578;SDS011;21687;48.900;9.188;2022-12-17T00:39:11;31.03;;;17.17;;
35578;SDS011;21687;48.900;9.188;2022-12-17T00:41:56;27.80;;;17.13;;
35578;SDS011;21687;48.900;9.188;2022-12-17T00:44:41;35.90;;;18.07;;
35578;SDS011;21687;48.900;9.188;2022-12-17T00:47:26;28.13;;;17.27;;
35578;SDS011;21687;48.900;9.188;2022-12-17T00:50:11;30.20;;;18.10;;
35578;SDS011;21687;48.900;9.188;2022-12-17T00:52:56;34.33;;;18.63;;
35578;SDS011;21687;48.900;9.188;2022-12-17T00:55:41;31.33;;;18.07;;
35578;SDS011;21687;48.900;9.188;2022-12-17T00:58:26;29.07;;;17.83;;
35578;SDS011;21687;48.900;9.188;2022-12-17T01:01:11;31.87;;;17.83;;
35578;SDS011;21687;48.900;9.188;2022-12-17T01:03:55;30.33;;;17.97;;
35578;SDS011;21687;48.900;9.188;2022-12-17T01:06:41;32.90;;;18.53;;
35578;SDS011;21687;48.900;9.188;2022-12-17T01:09:26;31.97;;;17.80;;
35578;SDS011;21687;48.900;9.188;2022-12-17T01:12:10;31.10;;;17.63;;
35578;SDS011;21687;48.900;9.188;2022-12-17T01:14:55;30.03;;;17.30;;
35578;SDS011;21687;48.900;9.188;2022-12-17T01:17:40;28.63;;;16.83;;
35578;SDS011;21687;48.900;9.188;2022-12-17T01:20:25;28.90;;;17.03;;
35578;SDS011;21687;48.900;9.188;2022-12-17T01:23:11;32.23;;;17.93;;
35578;SDS011;21687;48.900;9.188;2022-12-17T01:25:56;31.50;;;17.53;;
35578;SDS011;21687;48.900;9.188;2022-12-17T01:28:42;33.70;;;19.67;;
35578;SDS011;21687;48.900;9.188;2022-12-17T01:31:27;33.97;;;18.77;;
35578;SDS011;21687;48.900;9.188;2022-12-17T01:34:11;35.83;;;19.90;;
35578;SDS011;21687;48.900;9.188;2022-12-17T01:36:57;32.43;;;17.97;;
35578;SDS011;21687;48.900;9.188;2022-12-17T01:39:41;33.13;;;18.87;;
35578;SDS011;21687;48.900;9.188;2022-12-17T01:42:26;32.57;;;17.23;;
35578;SDS011;21687;48.900;9.188;2022-12-17T01:45:19;32.83;;;18.60;;
35578;SDS011;21687;48.900;9.188;2022-12-17T01:48:07;31.73;;;16.83;;
35578;SDS011;21687;48.900;9.188;2022-12-17T01:50:59;28.80;;;17.63;;
35578;SDS011;21687;48.900;9.188;2022-12-17T01:53:46;31.00;;;17.17;;
35578;SDS011;21687;48.900;9.188;2022-12-17T01:56:34;31.97;;;17.60;;
35578;SDS011;21687;48.900;9.188;2022-12-17T01:59:28;30.77;;;17.43;;
35578;SDS011;21687;48.900;9.188;2022-12-17T02:02:19;29.63;;;17.73;;
35578;SDS011;21687;48.900;9.188;2022-12-17T02:05:04;31.17;;;16.93;;
35578;SDS011;21687;48.900;9.188;2022-12-17T02:08:00;30.67;;;17.20;;
35578;SDS011;21687;48.900;9.188;2022-12-17T02:14:26;33.60;;;18.03;;
35578;SDS011;21687;48.900;9.188;2022-12-17T02:17:24;27.07;;;16.57;;
35578;SDS011;21687;48.900;9.188;2022-12-17T02:20:26;28.97;;;17.23;;
35578;SDS011;21687;48.900;9.188;2022-12-17T02:29:23;30.70;;;16.50;;
35578;SDS011;21687;48.900;9.188;2022-12-17T02:32:11;29.63;;;16.73;;
35578;SDS011;21687;48.900;9.188;2022-12-17T02:34:58;29.73;;;16.87;;
35578;SDS011;21687;48.900;9.188;2022-12-17T02:37:47;29.70;;;15.50;;
35578;SDS011;21687;48.900;9.188;2022-12-17T02:40:33;30.70;;;16.80;;
35578;SDS011;21687;48.900;9.188;2022-12-17T02:43:20;28.67;;;17.00;;
35578;SDS011;21687;48.900;9.188;2022-12-17T02:46:07;34.33;;;18.80;;
35578;SDS011;21687;48.900;9.188;2022-12-17T02:48:52;33.33;;;17.73;;
35578;SDS011;21687;48.900;9.188;2022-12-17T02:51:37;32.33;;;17.47;;
35578;SDS011;21687;48.900;9.188;2022-12-17T02:54:27;33.23;;;17.97;;
35578;SDS011;21687;48.900;9.188;2022-12-17T02:57:12;28.10;;;17.13;;
35578;SDS011;21687;48.900;9.188;2022-12-17T02:59:57;31.40;;;17.53;;
35578;SDS011;21687;48.900;9.188;2022-12-17T03:02:42;26.50;;;17.43;;
35578;SDS011;21687;48.900;9.188;2022-12-17T03:05:27;33.20;;;17.90;;
35578;SDS011;21687;48.900;9.188;2022-12-17T03:08:12;33.87;;;18.27;;
35578;SDS011;21687;48.900;9.188;2022-12-17T03:10:57;30.97;;;18.10;;
35578;SDS011;21687;48.900;9.188;2022-12-17T03:13:42;31.67;;;17.57;;
35578;SDS011;21687;48.900;9.188;2022-12-17T03:16:27;32.47;;;17.87;;
35578;SDS011;21687;48.900;9.188;2022-12-17T03:19:13;31.57;;;18.53;;
35578;SDS011;21687;48.900;9.188;2022-12-17T03:21:58;32.50;;;17.87;;
35578;SDS011;21687;48.900;9.188;2022-12-17T03:24:43;34.43;;;18.70;;
35578;SDS011;21687;48.900;9.188;2022-12-17T03:27:28;33.37;;;18.70;;
35578;SDS011;21687;48.900;9.188;2022-12-17T03:30:13;37.37;;;20.33;;
35578;SDS011;21687;48.900;9.188;2022-12-17T03:32:57;31.83;;;18.80;;
35578;SDS011;21687;48.900;9.188;2022-12-17T03:35:42;35.07;;;19.70;;
35578;SDS011;21687;48.900;9.188;2022-12-17T03:38:27;33.73;;;19.33;;
35578;SDS011;21687;48.900;9.188;2022-12-17T03:41:12;39.33;;;20.93;;
35578;SDS011;21687;48.900;9.188;2022-12-17T03:43:57;37.93;;;20.20;;
35578;SDS011;21687;48.900;9.188;2022-12-17T03:46:42;40.97;;;22.60;;
35578;SDS011;21687;48.900;9.188;2022-12-17T03:49:27;36.90;;;20.87;;
35578;SDS011;21687;48.900;9.188;2022-12-17T03:52:12;37.50;;;21.60;;
35578;SDS011;21687;48.900;9.188;2022-12-17T03:54:56;39.50;;;21.27;;
35578;SDS011;21687;48.900;9.188;2022-12-17T03:57:41;37.80;;;20.20;;
35578;SDS011;21687;48.900;9.188;2022-12-17T04:00:26;37.13;;;19.43;;
35578;SDS011;21687;48.900;9.188;2022-12-17T04:03:11;38.77;;;21.60;;
35578;SDS011;21687;48.900;9.188;2022-12-17T04:05:56;39.20;;;19.63;;
35578;SDS011;21687;48.900;9.188;2022-12-17T04:08:43;35.57;;;20.67;;
35578;SDS011;21687;48.900;9.188;2022-12-17T04:11:28;35.33;;;21.00;;
35578;SDS011;21687;48.900;9.188;2022-12-17T04:14:13;37.80;;;19.07;;
35578;SDS011;21687;48.900;9.188;2022-12-17T04:16:57;37.57;;;19.20;;
35578;SDS011;21687;48.900;9.188;2022-12-17T04:19:42;37.63;;;20.63;;
35578;SDS011;21687;48.900;9.188;2022-12-17T04:22:28;39.87;;;20.30;;
35578;SDS011;21687;48.900;9.188;2022-12-17T04:25:13;44.37;;;20.77;;
35578;SDS011;21687;48.900;9.188;2022-12-17T04:27:57;43.93;;;21.07;;
35578;SDS011;21687;48.900;9.188;2022-12-17T04:30:42;41.17;;;20.40;;
35578;SDS011;21687;48.900;9.188;2022-12-17T04:33:27;40.80;;;20.47;;
35578;SDS011;21687;48.900;9.188;2022-12-17T04:36:12;40.50;;;21.67;;
35578;SDS011;21687;48.900;9.188;2022-12-17T04:38:57;51.60;;;22.30;;
35578;SDS011;21687;48.900;9.188;2022-12-17T04:41:42;56.87;;;25.00;;
35578;SDS011;21687;48.900;9.188;2022-12-17T04:44:27;55.80;;;23.40;;
35578;SDS011;21687;48.900;9.188;2022-12-17T04:47:13;63.67;;;24.93;;
35578;SDS011;21687;48.900;9.188;2022-12-17T04:49:58;61.37;;;24.20;;
35578;SDS011;21687;48.900;9.188;2022-12-17T04:52:43;55.93;;;25.00;;
35578;SDS011;21687;48.900;9.188;2022-12-17T04:55:28;61.37;;;24.03;;
35578;SDS011;21687;48.900;9.188;2022-12-17T04:58:13;70.27;;;25.00;;
35578;SDS011;21687;48.900;9.188;2022-12-17T05:00:58;54.23;;;25.13;;
35578;SDS011;21687;48.900;9.188;2022-12-17T05:03:43;94.00;;;27.97;;
35578;SDS011;21687;48.900;9.188;2022-12-17T05:06:28;67.17;;;25.33;;
35578;SDS011;21687;48.900;9.188;2022-12-17T05:09:13;59.90;;;25.87;;
35578;SDS011;21687;48.900;9.188;2022-12-17T05:11:58;54.77;;;24.57;;
35578;SDS011;21687;48.900;9.188;2022-12-17T05:14:43;48.47;;;22.33;;
35578;SDS011;21687;48.900;9.188;2022-12-17T05:17:33;50.23;;;23.10;;
35578;SDS011;21687;48.900;9.188;2022-12-17T05:20:18;48.60;;;22.37;;
35578;SDS011;21687;48.900;9.188;2022-12-17T05:23:04;43.77;;;21.67;;
35578;SDS011;21687;48.900;9.188;2022-12-17T05:25:54;47.60;;;21.73;;
35578;SDS011;21687;48.900;9.188;2022-12-17T05:28:45;50.93;;;23.70;;
35578;SDS011;21687;48.900;9.188;2022-12-17T05:31:30;47.50;;;22.37;;
35578;SDS011;21687;48.900;9.188;2022-12-17T05:34:15;45.83;;;21.83;;
35578;SDS011;21687;48.900;9.188;2022-12-17T05:37:00;53.40;;;22.07;;
35578;SDS011;21687;48.900;9.188;2022-12-17T05:39:45;57.43;;;23.73;;
35578;SDS011;21687;48.900;9.188;2022-12-17T05:42:29;54.07;;;24.00;;
35578;SDS011;21687;48.900;9.188;2022-12-17T05:45:14;56.27;;;23.87;;
35578;SDS011;21687;48.900;9.188;2022-12-17T05:47:59;54.57;;;23.00;;
35578;SDS011;21687;48.900;9.188;2022-12-17T05:50:48;57.73;;;23.47;;
35578;SDS011;21687;48.900;9.188;2022-12-17T05:53:33;56.20;;;22.80;;
35578;SDS011;21687;48.900;9.188;2022-12-17T05:56:19;47.13;;;22.53;;
35578;SDS011;21687;48.900;9.188;2022-12-17T05:59:15;41.90;;;22.90;;
35578;SDS011;21687;48.900;9.188;2022-12-17T06:02:00;51.90;;;23.43;;
35578;SDS011;21687;48.900;9.188;2022-12-17T06:04:45;51.40;;;25.40;;
35578;SDS011;21687;48.900;9.188;2022-12-17T06:07:30;53.30;;;22.77;;
35578;SDS011;21687;48.900;9.188;2022-12-17T06:10:15;51.43;;;22.20;;
35578;SDS011;21687;48.900;9.188;2022-12-17T06:13:00;52.07;;;23.23;;
35578;SDS011;21687;48.900;9.188;2022-12-17T06:15:48;54.00;;;24.23;;
35578;SDS011;21687;48.900;9.188;2022-12-17T06:18:34;46.57;;;23.20;;
35578;SDS011;21687;48.900;9.188;2022-12-17T06:21:20;48.47;;;23.47;;
35578;SDS011;21687;48.900;9.188;2022-12-17T06:24:05;51.53;;;24.87;;
35578;SDS011;21687;48.900;9.188;2022-12-17T06:26:57;45.03;;;22.83;;
35578;SDS011;21687;48.900;9.188;2022-12-17T06:29:43;53.00;;;24.57;;
35578;SDS011;21687;48.900;9.188;2022-12-17T06:32:28;51.30;;;24.83;;
35578;SDS011;21687;48.900;9.188;2022-12-17T06:35:13;50.50;;;23.53;;
35578;SDS011;21687;48.900;9.188;2022-12-17T06:37:59;47.70;;;23.43;;
35578;SDS011;21687;48.900;9.188;2022-12-17T06:40:45;52.63;;;25.23;;
35578;SDS011;21687;48.900;9.188;2022-12-17T06:43:30;60.57;;;24.07;;
35578;SDS011;21687;48.900;9.188;2022-12-17T06:46:15;56.23;;;24.43;;
35578;SDS011;21687;48.900;9.188;2022-12-17T06:49:00;57.20;;;24.27;;
35578;SDS011;21687;48.900;9.188;2022-12-17T06:51:45;57.23;;;24.60;;
35578;SDS011;21687;48.900;9.188;2022-12-17T06:54:30;54.43;;;24.70;;
35578;SDS011;21687;48.900;9.188;2022-12-17T06:57:15;57.47;;;25.60;;
35578;SDS011;21687;48.900;9.188;2022-12-17T07:00:00;58.87;;;26.10;;
35578;SDS011;21687;48.900;9.188;2022-12-17T07:02:46;57.60;;;26.27;;
35578;SDS011;21687;48.900;9.188;2022-12-17T07:05:31;65.13;;;27.23;;
35578;SDS011;21687;48.900;9.188;2022-12-17T07:08:16;69.37;;;26.97;;
35578;SDS011;21687;48.900;9.188;2022-12-17T07:11:01;64.17;;;27.23;;
35578;SDS011;21687;48.900;9.188;2022-12-17T07:13:46;70.13;;;28.67;;
35578;SDS011;21687;48.900;9.188;2022-12-17T07:16:31;67.87;;;27.47;;
35578;SDS011;21687;48.900;9.188;2022-12-17T07:19:16;68.40;;;27.97;;
35578;SDS011;21687;48.900;9.188;2022-12-17T07:22:01;66.67;;;29.23;;
35578;SDS011;21687;48.900;9.188;2022-12-17T07:24:46;64.60;;;27.13;;
35578;SDS011;21687;48.900;9.188;2022-12-17T07:27:31;61.17;;;27.77;;
35578;SDS011;21687;48.900;9.188;2022-12-17T07:30:16;65.57;;;31.60;;
35578;SDS011;21687;48.900;9.188;2022-12-17T07:33:02;65.60;;;28.43;;
35578;SDS011;21687;48.900;9.188;2022-12-17T07:35:48;70.13;;;30.40;;
35578;SDS011;21687;48.900;9.188;2022-12-17T07:38:35;60.90;;;28.53;;
35578;SDS011;21687;48.900;9.188;2022-12-17T07:41:20;72.90;;;30.33;;
35578;SDS011;21687;48.900;9.188;2022-12-17T07:44:05;67.07;;;31.23;;
35578;SDS011;21687;48.900;9.188;2022-12-17T07:46:50;71.83;;;31.10;;
35578;SDS011;21687;48.900;9.188;2022-12-17T07:49:35;66.20;;;28.50;;
35578;SDS011;21687;48.900;9.188;2022-12-17T07:52:20;64.37;;;29.83;;
35578;SDS011;21687;48.900;9.188;2022-12-17T07:55:05;70.20;;;30.73;;
35578;SDS011;21687;48.900;9.188;2022-12-17T07:57:57;70.40;;;31.23;;
35578;SDS011;21687;48.900;9.188;2022-12-17T08:00:47;70.60;;;30.77;;
35578;SDS011;21687;48.900;9.188;2022-12-17T08:03:32;61.40;;;29.30;;
35578;SDS011;21687;48.900;9.188;2022-12-17T08:06:17;63.63;;;28.67;;
35578;SDS011;21687;48.900;9.188;2022-12-17T08:09:02;63.17;;;29.87;;
35578;SDS011;21687;48.900;9.188;2022-12-17T08:11:48;64.93;;;30.17;;
35578;SDS011;21687;48.900;9.188;2022-12-17T08:14:33;70.50;;;30.83;;
35578;SDS011;21687;48.900;9.188;2022-12-17T08:17:18;70.03;;;31.43;;
35578;SDS011;21687;48.900;9.188;2022-12-17T08:20:03;66.90;;;30.13;;
35578;SDS011;21687;48.900;9.188;2022-12-17T08:22:48;75.83;;;32.23;;
35578;SDS011;21687;48.900;9.188;2022-12-17T08:25:33;67.30;;;31.80;;
35578;SDS011;21687;48.900;9.188;2022-12-17T08:28:18;70.03;;;31.03;;
35578;SDS011;21687;48.900;9.188;2022-12-17T08:31:03;67.70;;;29.70;;
35578;SDS011;21687;48.900;9.188;2022-12-17T08:33:48;67.83;;;30.60;;
35578;SDS011;21687;48.900;9.188;2022-12-17T08:36:33;71.77;;;31.70;;
35578;SDS011;21687;48.900;9.188;2022-12-17T08:39:17;64.17;;;29.40;;
35578;SDS011;21687;48.900;9.188;2022-12-17T08:42:02;63.87;;;28.63;;
35578;SDS011;21687;48.900;9.188;2022-12-17T08:44:47;69.33;;;30.87;;
35578;SDS011;21687;48.900;9.188;2022-12-17T08:47:32;66.57;;;29.93;;
35578;SDS011;21687;48.900;9.188;2022-12-17T08:50:17;69.47;;;31.70;;
35578;SDS011;21687;48.900;9.188;2022-12-17T08:53:02;67.60;;;31.30;;
35578;SDS011;21687;48.900;9.188;2022-12-17T08:55:47;69.53;;;31.87;;
35578;SDS011;21687;48.900;9.188;2022-12-17T08:58:32;63.60;;;30.43;;
35578;SDS011;21687;48.900;9.188;2022-12-17T09:01:17;66.30;;;30.67;;
35578;SDS011;21687;48.900;9.188;2022-12-17T09:04:02;74.97;;;32.93;;
35578;SDS011;21687;48.900;9.188;2022-12-17T09:06:47;69.60;;;31.17;;
35578;SDS011;21687;48.900;9.188;2022-12-17T09:09:32;72.13;;;32.20;;
35578;SDS011;21687;48.900;9.188;2022-12-17T09:12:17;68.67;;;31.70;;
35578;SDS011;21687;48.900;9.188;2022-12-17T09:15:02;75.73;;;33.10;;
35578;SDS011;21687;48.900;9.188;2022-12-17T09:17:49;70.90;;;30.23;;
35578;SDS011;21687;48.900;9.188;2022-12-17T09:20:34;65.73;;;30.60;;
35578;SDS011;21687;48.900;9.188;2022-12-17T09:23:19;67.20;;;32.70;;
35578;SDS011;21687;48.900;9.188;2022-12-17T09:26:04;72.90;;;31.57;;
35578;SDS011;21687;48.900;9.188;2022-12-17T09:28:49;66.47;;;30.13;;
35578;SDS011;21687;48.900;9.188;2022-12-17T09:31:34;61.00;;;29.57;;
35578;SDS011;21687;48.900;9.188;2022-12-17T09:34:19;66.17;;;31.43;;
35578;SDS011;21687;48.900;9.188;2022-12-17T09:37:04;64.33;;;30.40;;
35578;SDS011;21687;48.900;9.188;2022-12-17T09:39:49;71.60;;;32.40;;
35578;SDS011;21687;48.900;9.188;2022-12-17T09:45:53;67.63;;;31.83;;
35578;SDS011;21687;48.900;9.188;2022-12-17T09:48:59;61.23;;;29.17;;
35578;SDS011;21687;48.900;9.188;2022-12-17T09:51:57;67.70;;;31.33;;
35578;SDS011;21687;48.900;9.188;2022-12-17T09:54:45;71.30;;;32.40;;
35578;SDS011;21687;48.900;9.188;2022-12-17T09:57:35;71.10;;;32.10;;
35578;SDS011;21687;48.900;9.188;2022-12-17T10:00:24;77.47;;;34.67;;
35578;SDS011;21687;48.900;9.188;2022-12-17T10:03:11;71.73;;;30.87;;
35578;SDS011;21687;48.900;9.188;2022-12-17T10:06:03;72.37;;;30.50;;
35578;SDS011;21687;48.900;9.188;2022-12-17T10:08:58;76.13;;;32.07;;
35578;SDS011;21687;48.900;9.188;2022-12-17T10:11:44;68.03;;;31.33;;
35578;SDS011;21687;48.900;9.188;2022-12-17T10:14:29;62.73;;;29.47;;
35578;SDS011;21687;48.900;9.188;2022-12-17T10:17:15;64.13;;;31.10;;
35578;SDS011;21687;48.900;9.188;2022-12-17T10:20:02;66.87;;;31.30;;
35578;SDS011;21687;48.900;9.188;2022-12-17T10:23:00;63.07;;;27.53;;
35578;SDS011;21687;48.900;9.188;2022-12-17T10:25:49;74.00;;;29.83;;
35578;SDS011;21687;48.900;9.188;2022-12-17T10:28:38;63.17;;;29.07;;
35578;SDS011;21687;48.900;9.188;2022-12-17T10:31:28;67.03;;;30.03;;
35578;SDS011;21687;48.900;9.188;2022-12-17T10:34:15;60.57;;;29.97;;
35578;SDS011;21687;48.900;9.188;2022-12-17T10:37:02;61.07;;;30.30;;
35578;SDS011;21687;48.900;9.188;2022-12-17T10:39:59;65.63;;;30.37;;
35578;SDS011;21687;48.900;9.188;2022-12-17T10:42:59;61.63;;;27.80;;
35578;SDS011;21687;48.900;9.188;2022-12-17T10:45:51;70.40;;;29.57;;
35578;SDS011;21687;48.900;9.188;2022-12-17T10:48:39;59.30;;;27.27;;
35578;SDS011;21687;48.900;9.188;2022-12-17T10:51:26;61.80;;;29.47;;
35578;SDS011;21687;48.900;9.188;2022-12-17T10:54:23;61.27;;;29.00;;
35578;SDS011;21687;48.900;9.188;2022-12-17T10:57:22;56.37;;;28.63;;
35578;SDS011;21687;48.900;9.188;2022-12-17T11:00:20;62.07;;;28.17;;
35578;SDS011;21687;48.900;9.188;2022-12-17T11:03:05;60.03;;;28.07;;
35578;SDS011;21687;48.900;9.188;2022-12-17T11:06:04;53.53;;;27.30;;
35578;SDS011;21687;48.900;9.188;2022-12-17T11:08:49;60.27;;;27.10;;
35578;SDS011;21687;48.900;9.188;2022-12-17T11:11:34;52.20;;;27.17;;
35578;SDS011;21687;48.900;9.188;2022-12-17T11:14:19;50.47;;;26.17;;
35578;SDS011;21687;48.900;9.188;2022-12-17T11:17:05;52.47;;;27.23;;
35578;SDS011;21687;48.900;9.188;2022-12-17T11:20:00;50.80;;;27.10;;
35578;SDS011;21687;48.900;9.188;2022-12-17T11:22:51;51.17;;;26.80;;
35578;SDS011;21687;48.900;9.188;2022-12-17T11:28:45;51.20;;;26.80;;
35578;SDS011;21687;48.900;9.188;2022-12-17T11:31:34;53.77;;;27.40;;
35578;SDS011;21687;48.900;9.188;2022-12-17T11:37:25;49.77;;;26.40;;
35578;SDS011;21687;48.900;9.188;2022-12-17T11:40:20;50.97;;;25.77;;
35578;SDS011;21687;48.900;9.188;2022-12-17T11:43:21;53.00;;;28.33;;
35578;SDS011;21687;48.900;9.188;2022-12-17T11:46:12;50.83;;;26.97;;
35578;SDS011;21687;48.900;9.188;2022-12-17T11:55:16;51.63;;;26.77;;
35578;SDS011;21687;48.900;9.188;2022-12-17T11:58:22;54.97;;;28.20;;
35578;SDS011;21687;48.900;9.188;2022-12-17T12:01:18;53.80;;;26.43;;
35578;SDS011;21687;48.900;9.188;2022-12-17T12:04:33;60.43;;;27.50;;
35578;SDS011;21687;48.900;9.188;2022-12-17T12:10:47;47.47;;;25.13;;
35578;SDS011;21687;48.900;9.188;2022-12-17T12:19:44;50.53;;;26.80;;
35578;SDS011;21687;48.900;9.188;2022-12-17T12:22:47;51.87;;;25.27;;
35578;SDS011;21687;48.900;9.188;2022-12-17T12:25:41;49.90;;;26.27;;
35578;SDS011;21687;48.900;9.188;2022-12-17T12:29:25;47.70;;;25.00;;
35578;SDS011;21687;48.900;9.188;2022-12-17T12:32:14;47.97;;;24.60;;
35578;SDS011;21687;48.900;9.188;2022-12-17T12:35:19;50.70;;;24.20;;
35578;SDS011;21687;48.900;9.188;2022-12-17T12:38:09;45.30;;;24.33;;
35578;SDS011;21687;48.900;9.188;2022-12-17T12:44:18;48.90;;;24.70;;
35578;SDS011;21687;48.900;9.188;2022-12-17T12:47:22;54.17;;;26.17;;
35578;SDS011;21687;48.900;9.188;2022-12-17T12:50:37;51.07;;;27.13;;
35578;SDS011;21687;48.900;9.188;2022-12-17T12:53:31;49.30;;;26.03;;
35578;SDS011;21687;48.900;9.188;2022-12-17T12:56:31;51.67;;;26.20;;
35578;SDS011;21687;48.900;9.188;2022-12-17T12:59:25;50.90;;;25.50;;
35578;SDS011;21687;48.900;9.188;2022-12-17T13:02:33;55.33;;;27.40;;
35578;SDS011;21687;48.900;9.188;2022-12-17T13:10:44;54.10;;;26.47;;
35578;SDS011;21687;48.900;9.188;2022-12-17T13:15:54;51.77;;;27.30;;
35578;SDS011;21687;48.900;9.188;2022-12-17T13:18:31;48.33;;;26.67;;
35578;SDS011;21687;48.900;9.188;2022-12-17T13:21:23;53.43;;;27.63;;
35578;SDS011;21687;48.900;9.188;2022-12-17T13:23:48;58.23;;;28.13;;
35578;SDS011;21687;48.900;9.188;2022-12-17T13:26:22;53.23;;;27.47;;
35578;SDS011;21687;48.900;9.188;2022-12-17T13:37:08;49.50;;;26.03;;
35578;SDS011;21687;48.900;9.188;2022-12-17T13:42:34;50.03;;;27.03;;
35578;SDS011;21687;48.900;9.188;2022-12-17T13:45:01;54.53;;;28.07;;
35578;SDS011;21687;48.900;9.188;2022-12-17T13:47:30;54.63;;;27.33;;
35578;SDS011;21687;48.900;9.188;2022-12-17T13:49:58;54.90;;;28.80;;
35578;SDS011;21687;48.900;9.188;2022-12-17T13:52:26;51.27;;;26.33;;
35578;SDS011;21687;48.900;9.188;2022-12-17T13:55:04;54.43;;;27.63;;
35578;SDS011;21687;48.900;9.188;2022-12-17T13:57:35;52.30;;;28.27;;
35578;SDS011;21687;48.900;9.188;2022-12-17T14:00:02;54.33;;;27.97;;
35578;SDS011;21687;48.900;9.188;2022-12-17T14:02:33;57.67;;;28.57;;
35578;SDS011;21687;48.900;9.188;2022-12-17T14:05:03;53.23;;;27.63;;
35578;SDS011;21687;48.900;9.188;2022-12-17T14:07:32;54.27;;;27.17;;
35578;SDS011;21687;48.900;9.188;2022-12-17T14:10:02;54.93;;;27.40;;
35578;SDS011;21687;48.900;9.188;2022-12-17T14:12:29;54.40;;;26.90;;
35578;SDS011;21687;48.900;9.188;2022-12-17T14:15:00;53.07;;;28.20;;
35578;SDS011;21687;48.900;9.188;2022-12-17T14:17:34;55.87;;;27.83;;
35578;SDS011;21687;48.900;9.188;2022-12-17T14:23:11;56.13;;;28.53;;
35578;SDS011;21687;48.900;9.188;2022-12-17T14:25:53;54.87;;;29.23;;
35578;SDS011;21687;48.900;9.188;2022-12-17T14:28:27;54.17;;;27.87;;
35578;SDS011;21687;48.900;9.188;2022-12-17T14:31:05;51.73;;;27.73;;
35578;SDS011;21687;48.900;9.188;2022-12-17T14:33:44;59.80;;;27.80;;
35578;SDS011;21687;48.900;9.188;2022-12-17T14:38:39;57.17;;;29.57;;
35578;SDS011;21687;48.900;9.188;2022-12-17T14:41:19;52.07;;;26.93;;
35578;SDS011;21687;48.900;9.188;2022-12-17T14:44:04;54.90;;;28.53;;
35578;SDS011;21687;48.900;9.188;2022-12-17T14:46:32;56.67;;;28.67;;
35578;SDS011;21687;48.900;9.188;2022-12-17T14:49:00;65.47;;;29.97;;
35578;SDS011;21687;48.900;9.188;2022-12-17T14:57:03;59.33;;;29.37;;
35578;SDS011;21687;48.900;9.188;2022-12-17T15:04:34;60.53;;;28.87;;
35578;SDS011;21687;48.900;9.188;2022-12-17T15:07:02;61.17;;;29.17;;
35578;SDS011;21687;48.900;9.188;2022-12-17T15:09:34;58.97;;;29.93;;
35578;SDS011;21687;48.900;9.188;2022-12-17T15:12:01;63.37;;;30.10;;
35578;SDS011;21687;48.900;9.188;2022-12-17T15:14:27;66.60;;;31.60;;
35578;SDS011;21687;48.900;9.188;2022-12-17T15:16:54;63.40;;;29.33;;
35578;SDS011;21687;48.900;9.188;2022-12-17T15:19:21;65.73;;;30.73;;
35578;SDS011;21687;48.900;9.188;2022-12-17T15:21:47;64.23;;;30.97;;
35578;SDS011;21687;48.900;9.188;2022-12-17T15:24:14;64.77;;;31.33;;
35578;SDS011;21687;48.900;9.188;2022-12-17T15:26:44;69.73;;;31.90;;
35578;SDS011;21687;48.900;9.188;2022-12-17T15:29:10;61.13;;;29.73;;
35578;SDS011;21687;48.900;9.188;2022-12-17T15:31:36;60.07;;;30.73;;
35578;SDS011;21687;48.900;9.188;2022-12-17T15:34:03;58.07;;;29.77;;
35578;SDS011;21687;48.900;9.188;2022-12-17T15:36:30;59.30;;;29.97;;
35578;SDS011;21687;48.900;9.188;2022-12-17T15:38:57;59.67;;;29.43;;
35578;SDS011;21687;48.900;9.188;2022-12-17T15:41:23;61.60;;;29.03;;
35578;SDS011;21687;48.900;9.188;2022-12-17T15:44:09;60.67;;;30.17;;
35578;SDS011;21687;48.900;9.188;2022-12-17T15:46:35;62.87;;;29.23;;
35578;SDS011;21687;48.900;9.188;2022-12-17T15:49:01;58.00;;;28.97;;
35578;SDS011;21687;48.900;9.188;2022-12-17T15:51:28;58.87;;;29.57;;
35578;SDS011;21687;48.900;9.188;2022-12-17T15:53:54;54.73;;;28.63;;
35578;SDS011;21687;48.900;9.188;2022-12-17T15:56:25;52.47;;;26.67;;
35578;SDS011;21687;48.900;9.188;2022-12-17T15:58:55;59.97;;;28.47;;
35578;SDS011;21687;48.900;9.188;2022-12-17T16:01:22;61.13;;;30.03;;
35578;SDS011;21687;48.900;9.188;2022-12-17T16:03:48;56.47;;;28.57;;
35578;SDS011;21687;48.900;9.188;2022-12-17T16:06:16;58.33;;;29.50;;
35578;SDS011;21687;48.900;9.188;2022-12-17T16:08:42;57.03;;;28.73;;
35578;SDS011;21687;48.900;9.188;2022-12-17T16:11:09;61.27;;;29.43;;
35578;SDS011;21687;48.900;9.188;2022-12-17T16:13:36;58.23;;;29.33;;
35578;SDS011;21687;48.900;9.188;2022-12-17T16:16:03;61.33;;;30.17;;
35578;SDS011;21687;48.900;9.188;2022-12-17T16:18:30;55.60;;;28.50;;
35578;SDS011;21687;48.900;9.188;2022-12-17T16:21:04;56.77;;;29.37;;
35578;SDS011;21687;48.900;9.188;2022-12-17T16:23:31;60.10;;;29.67;;
35578;SDS011;21687;48.900;9.188;2022-12-17T16:25:59;62.83;;;30.77;;
35578;SDS011;21687;48.900;9.188;2022-12-17T16:28:27;60.13;;;29.57;;
35578;SDS011;21687;48.900;9.188;2022-12-17T16:31:00;66.97;;;31.33;;
35578;SDS011;21687;48.900;9.188;2022-12-17T16:33:35;64.10;;;31.40;;
35578;SDS011;21687;48.900;9.188;2022-12-17T16:36:03;58.57;;;29.53;;
35578;SDS011;21687;48.900;9.188;2022-12-17T16:38:30;71.13;;;32.53;;
35578;SDS011;21687;48.900;9.188;2022-12-17T16:40:58;68.47;;;34.20;;
35578;SDS011;21687;48.900;9.188;2022-12-17T16:43:27;69.93;;;33.40;;
35578;SDS011;21687;48.900;9.188;2022-12-17T16:45:57;71.40;;;33.27;;
35578;SDS011;21687;48.900;9.188;2022-12-17T16:48:23;73.73;;;35.93;;
35578;SDS011;21687;48.900;9.188;2022-12-17T16:50:50;69.43;;;34.83;;
35578;SDS011;21687;48.900;9.188;2022-12-17T16:53:16;69.00;;;36.20;;
35578;SDS011;21687;48.900;9.188;2022-12-17T16:55:43;78.77;;;37.17;;
35578;SDS011;21687;48.900;9.188;2022-12-17T16:58:12;73.47;;;36.07;;
35578;SDS011;21687;48.900;9.188;2022-12-17T17:00:39;81.03;;;36.43;;
35578;SDS011;21687;48.900;9.188;2022-12-17T17:03:06;75.73;;;36.50;;
35578;SDS011;21687;48.900;9.188;2022-12-17T17:05:33;68.50;;;33.07;;
35578;SDS011;21687;48.900;9.188;2022-12-17T17:08:01;76.40;;;36.10;;